createdAt,value
2017-10-22T00:27:00.658Z,18.03
2017-10-22T00:29:28.105Z,20.43
2017-10-22T00:31:55.551Z,15.50
2017-10-22T00:34:26.861Z,14.90
2017-10-22T00:50:13.608Z,14.67
2017-10-22T00:52:41.459Z,19.30
2017-10-22T00:58:30.139Z,17.93
2017-10-22T01:00:58.005Z,14.10
2017-10-22T01:03:25.842Z,11.10
2017-10-22T01:05:53.281Z,12.80
2017-10-22T01:08:20.740Z,14.47
2017-10-22T01:10:48.190Z,15.93
2017-10-22T01:13:15.618Z,16.00
2017-10-22T01:15:43.402Z,14.77
2017-10-22T01:18:10.854Z,15.53
2017-10-22T01:20:38.265Z,15.70
2017-10-22T01:23:06.139Z,17.13
2017-10-22T01:25:33.955Z,13.33
2017-10-22T01:28:01.381Z,13.83
2017-10-22T01:30:28.837Z,11.20
2017-10-22T01:32:56.313Z,13.30
2017-10-22T01:35:23.746Z,13.10
2017-10-22T01:37:51.526Z,10.20
2017-10-22T01:40:18.952Z,18.90
2017-10-22T01:42:46.374Z,13.17
2017-10-22T01:45:14.507Z,12.50
2017-10-22T01:47:41.939Z,10.03
2017-10-22T01:50:09.365Z,11.73
2017-10-22T01:52:37.208Z,12.40
2017-10-22T01:55:04.635Z,11.83
2017-10-22T01:57:32.061Z,12.23
2017-10-22T01:59:59.529Z,11.30
2017-10-22T02:02:26.967Z,12.17
2017-10-22T02:04:54.397Z,10.70
2017-10-22T02:07:22.434Z,10.50
2017-10-22T02:09:49.869Z,13.43
2017-10-22T02:12:17.301Z,12.93
2017-10-22T02:14:44.730Z,10.23
2017-10-22T02:17:12.553Z,10.80
2017-10-22T02:19:40.030Z,13.10
2017-10-22T02:22:07.455Z,9.80
2017-10-22T02:24:34.877Z,8.53
2017-10-22T02:27:02.338Z,12.10
2017-10-22T02:29:29.766Z,16.20
2017-10-22T02:31:57.602Z,11.93
2017-10-22T02:34:25.023Z,12.80
2017-10-22T02:36:52.465Z,8.80
2017-10-22T02:39:20.258Z,13.40
2017-10-22T02:41:47.694Z,14.77
2017-10-22T02:44:15.118Z,8.57
2017-10-22T02:46:43.244Z,14.43
2017-10-22T02:49:10.677Z,10.80
2017-10-22T02:51:38.105Z,9.93
2017-10-22T02:54:05.555Z,18.53
2017-10-22T02:56:33.379Z,14.00
2017-10-22T02:59:00.803Z,14.63
2017-10-22T03:01:28.273Z,9.10
2017-10-22T03:03:55.703Z,11.10
2017-10-22T03:06:23.126Z,7.13
2017-10-22T03:08:51.250Z,12.37
2017-10-22T03:11:18.665Z,9.47
2017-10-22T03:13:46.100Z,6.70
2017-10-22T03:16:13.570Z,12.47
2017-10-22T03:18:41.403Z,12.23
2017-10-22T03:21:08.833Z,15.57
2017-10-22T03:23:36.307Z,9.90
2017-10-22T03:26:03.729Z,11.10
2017-10-22T03:28:31.178Z,10.90
2017-10-22T03:30:58.671Z,11.20
2017-10-22T03:33:26.097Z,11.03
2017-10-22T03:35:53.538Z,13.60
2017-10-22T04:03:00.689Z,13.73
2017-10-22T04:05:31.374Z,9.63
2017-10-22T04:08:03.827Z,12.73
2017-10-22T04:20:02.274Z,9.80
2017-10-22T04:22:36.269Z,7.50
2017-10-22T04:27:51.014Z,10.77
2017-10-22T04:30:21.936Z,11.50
2017-10-22T04:32:49.395Z,13.93
2017-10-22T04:45:13.556Z,10.80
2017-10-22T04:47:43.084Z,10.50
2017-10-22T04:50:13.273Z,11.17
2017-10-22T04:52:40.876Z,9.17
2017-10-22T05:19:38.984Z,11.07
2017-10-22T05:22:12.740Z,9.93
2017-10-22T05:24:51.440Z,8.70
2017-10-22T05:27:21.015Z,15.20
2017-10-22T05:29:48.862Z,8.33
2017-10-22T05:32:16.317Z,11.53
2017-10-22T05:34:43.795Z,9.73
2017-10-22T05:37:12.627Z,10.47
2017-10-22T05:39:46.689Z,13.90
2017-10-22T05:42:26.307Z,12.10
2017-10-22T05:45:00.156Z,14.43
2017-10-22T05:47:33.107Z,13.57
2017-10-22T05:50:18.204Z,9.83
2017-10-22T05:52:46.657Z,12.37
2017-10-22T05:55:16.854Z,15.23
2017-10-22T05:57:46.208Z,14.67
2017-10-22T06:37:32.398Z,11.60
2017-10-22T06:40:23.942Z,9.03
2017-10-22T06:42:54.099Z,12.70
2017-10-22T06:45:32.927Z,9.07
2017-10-22T07:51:47.795Z,8.10
2017-10-22T07:54:21.859Z,10.47
2017-10-22T08:04:54.369Z,9.23
2017-10-22T08:07:27.335Z,15.90
2017-10-22T08:09:55.917Z,10.07
2017-10-22T08:12:23.350Z,8.30
2017-10-22T08:14:51.062Z,14.10
2017-10-22T08:17:18.486Z,7.37
2017-10-22T08:19:45.924Z,9.73
2017-10-22T08:22:13.622Z,9.60
2017-10-22T08:24:41.056Z,10.70
2017-10-22T08:27:08.494Z,10.07
2017-10-22T08:29:36.189Z,10.03
2017-10-22T08:32:03.621Z,7.87
2017-10-22T08:34:31.049Z,8.60
2017-10-22T08:36:58.927Z,9.47
2017-10-22T08:39:26.349Z,9.10
2017-10-22T08:41:53.773Z,6.97
2017-10-22T08:44:21.251Z,8.63
2017-10-22T08:46:48.681Z,8.70
2017-10-22T08:49:16.126Z,7.00
2017-10-22T08:51:43.894Z,9.43
2017-10-22T08:54:11.395Z,8.73
2017-10-22T08:56:39.238Z,9.20
2017-10-22T08:59:06.686Z,6.50
2017-10-22T09:01:34.122Z,11.20
2017-10-22T09:04:01.567Z,7.13
2017-10-22T09:06:29.347Z,10.30
2017-10-22T09:08:56.792Z,6.27
2017-10-22T09:11:24.234Z,8.27
2017-10-22T09:13:52.319Z,9.50
2017-10-22T09:16:19.755Z,4.77
2017-10-22T09:18:47.177Z,7.00
2017-10-22T09:21:15.028Z,9.43
2017-10-22T09:23:42.456Z,6.20
2017-10-22T09:26:09.877Z,9.87
2017-10-22T09:28:37.334Z,8.87
2017-10-22T09:31:04.766Z,9.73
2017-10-22T09:33:32.594Z,7.00
2017-10-22T09:38:34.258Z,7.93
2017-10-22T09:41:01.721Z,7.43
2017-10-22T09:43:29.141Z,6.60
2017-10-22T09:45:56.585Z,5.57
2017-10-22T09:48:24.061Z,7.40
2017-10-22T09:50:51.494Z,5.93
2017-10-22T09:53:18.926Z,10.10
2017-10-22T09:55:46.780Z,7.93
2017-10-22T09:58:14.623Z,6.00
2017-10-22T10:00:42.085Z,7.77
2017-10-22T10:03:09.726Z,6.77
2017-10-22T10:05:37.166Z,7.60
2017-10-22T10:08:04.590Z,8.63
2017-10-22T10:10:32.033Z,4.80
2017-10-22T10:12:59.466Z,6.10
2017-10-22T10:15:26.894Z,8.00
2017-10-22T10:17:54.554Z,7.10
2017-10-22T10:20:21.986Z,5.17
2017-10-22T10:22:49.409Z,4.70
2017-10-22T10:25:17.274Z,4.50
2017-10-22T10:27:44.695Z,4.50
2017-10-22T10:30:12.121Z,5.33
2017-10-22T10:32:39.807Z,4.50
2017-10-22T10:35:07.227Z,7.00
2017-10-22T10:37:34.662Z,6.80
2017-10-22T10:40:02.879Z,6.33
2017-10-22T10:42:30.306Z,3.40
2017-10-22T10:44:57.737Z,4.20
2017-10-22T10:47:25.597Z,5.30
2017-10-22T10:49:53.417Z,4.83
2017-10-22T10:52:20.854Z,8.53
2017-10-22T10:54:48.525Z,7.43
2017-10-22T10:57:15.950Z,6.67
2017-10-22T10:59:43.382Z,3.67
2017-10-22T11:02:11.240Z,5.57
2017-10-22T11:04:38.665Z,7.83
2017-10-22T11:07:06.099Z,3.93
2017-10-22T11:09:33.530Z,4.53
2017-10-22T11:12:00.958Z,3.43
2017-10-22T11:14:28.397Z,5.13
2017-10-22T11:16:55.835Z,4.80
2017-10-22T11:19:23.268Z,3.40
2017-10-22T11:21:50.697Z,5.30
2017-10-22T11:24:18.530Z,4.97
2017-10-22T11:26:45.979Z,6.90
2017-10-22T11:29:13.417Z,5.80
2017-10-22T11:31:40.838Z,7.73
2017-10-22T11:34:08.270Z,6.23
2017-10-22T11:36:35.790Z,11.43
2017-10-22T11:39:03.219Z,5.03
2017-10-22T11:41:30.998Z,6.80
2017-10-22T11:43:58.429Z,5.67
2017-10-22T11:46:25.854Z,3.93
2017-10-22T11:48:53.316Z,3.63
2017-10-22T11:51:21.130Z,6.03
2017-10-22T11:53:48.591Z,8.33
2017-10-22T11:56:16.023Z,5.33
2017-10-22T11:58:43.554Z,7.30
2017-10-22T12:01:11.663Z,7.30
2017-10-22T12:03:39.081Z,6.33
2017-10-22T12:06:06.518Z,6.00
2017-10-22T12:08:34.357Z,8.43
2017-10-22T12:11:01.802Z,9.10
2017-10-22T12:13:29.241Z,11.93
2017-10-22T12:15:56.671Z,8.70
2017-10-22T12:18:24.145Z,7.87
2017-10-22T12:20:51.574Z,12.17
2017-10-22T12:23:19.064Z,9.37
2017-10-22T12:25:46.554Z,6.17
2017-10-22T12:28:13.957Z,6.70
2017-10-22T12:30:41.373Z,6.33
2017-10-22T12:33:09.214Z,6.40
2017-10-22T12:35:36.651Z,5.40
2017-10-22T12:38:04.079Z,6.90
2017-10-22T12:40:31.510Z,6.97
2017-10-22T12:42:59.361Z,5.47
2017-10-22T12:45:27.185Z,6.57
2017-10-22T12:47:54.620Z,5.40
2017-10-22T12:50:22.309Z,7.47
2017-10-22T12:52:49.736Z,7.10
2017-10-22T12:55:17.182Z,7.33
2017-10-22T12:57:44.612Z,6.50
2017-10-22T13:00:12.735Z,8.73
2017-10-22T13:02:40.165Z,4.80
2017-10-22T13:05:07.597Z,5.67
2017-10-22T13:07:35.706Z,5.33
2017-10-22T13:10:03.138Z,7.60
2017-10-22T13:12:30.575Z,5.03
2017-10-22T13:14:58.435Z,5.93
2017-10-22T13:17:26.261Z,5.07
2017-10-22T13:19:53.686Z,6.70
2017-10-22T13:22:21.150Z,7.07
2017-10-22T13:24:48.586Z,5.53
2017-10-22T13:27:16.010Z,7.50
2017-10-22T13:29:44.058Z,5.60
2017-10-22T13:32:11.507Z,7.43
2017-10-22T13:34:38.982Z,6.63
2017-10-22T13:37:06.435Z,7.57
2017-10-22T13:39:33.857Z,6.73
2017-10-22T13:42:01.289Z,6.47
2017-10-22T13:44:28.750Z,6.73
2017-10-22T13:46:56.183Z,5.87
2017-10-22T13:49:23.629Z,6.13
2017-10-22T13:51:52.278Z,6.37
2017-10-22T13:54:19.702Z,7.77
2017-10-22T13:56:47.143Z,7.70
2017-10-22T13:59:14.606Z,5.90
2017-10-22T14:01:42.031Z,6.20
2017-10-22T14:04:09.858Z,7.40
2017-10-22T14:06:37.310Z,7.33
2017-10-22T14:09:04.739Z,8.10
2017-10-22T14:11:32.168Z,7.50
2017-10-22T14:13:59.631Z,7.77
2017-10-22T14:16:27.055Z,8.63
2017-10-22T14:18:54.485Z,8.93
2017-10-22T14:21:21.950Z,9.00
2017-10-22T14:23:49.464Z,9.10
2017-10-22T14:26:16.910Z,9.33
2017-10-22T14:28:44.366Z,9.67
2017-10-22T14:31:11.793Z,8.07
2017-10-22T14:33:39.630Z,11.97
2017-10-22T14:36:07.077Z,12.47
2017-10-22T14:38:34.502Z,15.10
2017-10-22T14:41:01.962Z,10.67
2017-10-22T14:43:29.394Z,12.37
2017-10-22T14:45:56.828Z,11.00
2017-10-22T14:48:25.059Z,12.83
2017-10-22T14:50:52.485Z,12.13
2017-10-22T14:53:19.923Z,9.77
2017-10-22T14:55:47.778Z,11.50
2017-10-22T14:58:15.623Z,11.33
2017-10-22T15:00:43.051Z,13.73
2017-10-22T15:03:10.512Z,11.27
2017-10-22T15:05:38.117Z,11.80
2017-10-22T15:08:05.929Z,12.00
2017-10-22T15:10:33.363Z,10.90
2017-10-22T15:13:00.793Z,10.40
2017-10-22T15:15:28.229Z,11.53
2017-10-22T15:17:56.109Z,11.47
2017-10-22T15:20:23.930Z,16.53
2017-10-22T15:22:51.367Z,12.97
2017-10-22T15:25:18.814Z,13.20
2017-10-22T15:27:46.246Z,10.50
2017-10-22T15:30:13.690Z,12.97
2017-10-22T15:32:41.586Z,15.50
2017-10-22T15:35:09.011Z,12.87
2017-10-22T15:37:36.853Z,12.27
2017-10-22T15:40:04.281Z,13.77
2017-10-22T15:42:31.713Z,11.03
2017-10-22T15:44:59.195Z,16.90
2017-10-22T15:47:26.663Z,16.00
2017-10-22T15:49:54.091Z,13.70
2017-10-22T15:52:21.722Z,13.40
2017-10-22T15:54:49.155Z,14.23
2017-10-22T15:57:17.023Z,13.27
2017-10-22T15:59:44.856Z,11.33
2017-10-22T16:02:13.384Z,10.70
2017-10-22T16:04:41.126Z,14.77
2017-10-22T16:07:08.571Z,13.50
2017-10-22T16:09:37.477Z,16.83
2017-10-22T16:12:05.308Z,15.50
2017-10-22T16:14:32.839Z,12.00
2017-10-22T16:17:01.689Z,13.47
2017-10-22T16:19:29.515Z,13.27
2017-10-22T16:21:56.950Z,16.17
2017-10-22T16:24:24.392Z,11.90
2017-10-22T16:26:51.823Z,10.90
2017-10-22T16:29:20.462Z,10.90
2017-10-22T16:31:47.894Z,11.13
2017-10-22T16:34:15.325Z,11.60
2017-10-22T16:36:42.802Z,13.17
2017-10-22T16:39:10.240Z,14.33
2017-10-22T16:41:37.676Z,7.97
2017-10-22T16:44:05.527Z,10.37
2017-10-22T16:46:33.357Z,10.73
2017-10-22T16:49:00.798Z,12.20
2017-10-22T16:51:28.250Z,9.50
2017-10-22T16:53:55.850Z,8.50
2017-10-22T16:56:23.300Z,11.80
2017-10-22T16:58:50.754Z,6.37
2017-10-22T17:01:18.182Z,9.50
2017-10-22T17:03:45.636Z,9.23
2017-10-22T17:06:13.413Z,8.20
2017-10-22T17:08:40.831Z,11.23
2017-10-22T17:11:13.194Z,5.93
2017-10-22T17:13:40.658Z,10.03
2017-10-22T17:16:08.093Z,13.13
2017-10-22T17:18:37.530Z,10.27
2017-10-22T17:21:04.963Z,9.97
2017-10-22T17:23:32.458Z,11.70
2017-10-22T17:26:00.115Z,10.37
2017-10-22T17:28:27.550Z,9.73
2017-10-22T17:30:54.982Z,13.00
2017-10-22T17:33:22.446Z,10.20
2017-10-22T17:35:49.877Z,12.20
2017-10-22T17:38:17.312Z,11.33
2017-10-22T17:40:44.785Z,12.17
2017-10-22T17:43:12.630Z,15.23
2017-10-22T17:45:40.071Z,12.73
2017-10-22T17:48:07.560Z,15.87
2017-10-22T17:50:35.383Z,9.30
2017-10-22T17:53:03.208Z,10.07
2017-10-22T17:55:30.653Z,13.70
2017-10-22T17:57:58.125Z,14.07
2017-10-22T18:00:25.811Z,12.47
2017-10-22T18:02:53.244Z,14.03
2017-10-22T18:05:20.698Z,11.53
2017-10-22T18:07:48.147Z,15.80
2017-10-22T18:10:15.596Z,15.40
2017-10-22T18:12:43.067Z,12.50
2017-10-22T18:15:10.502Z,10.90
2017-10-22T18:17:37.942Z,14.20
2017-10-22T18:20:05.790Z,10.50
2017-10-22T18:22:33.474Z,14.60
2017-10-22T18:25:00.906Z,10.80
2017-10-22T18:27:28.743Z,15.13
2017-10-22T18:29:56.373Z,15.27
2017-10-22T18:32:23.818Z,16.33
2017-10-22T18:34:51.250Z,12.67
2017-10-22T18:37:19.087Z,15.80
2017-10-22T18:39:46.540Z,15.77
2017-10-22T18:42:13.983Z,17.90
2017-10-22T18:44:42.145Z,13.67
2017-10-22T18:47:09.780Z,15.10
2017-10-22T18:49:37.207Z,17.10
2017-10-22T18:52:04.644Z,18.30
2017-10-22T18:54:32.123Z,16.53
2017-10-22T18:56:59.969Z,16.70
2017-10-22T18:59:27.410Z,19.60
2017-10-22T19:01:54.874Z,22.10
2017-10-22T19:04:22.311Z,19.23
2017-10-22T19:06:49.776Z,17.17
2017-10-22T19:09:17.210Z,22.73
2017-10-22T19:11:44.650Z,21.23
2017-10-22T19:14:12.104Z,22.20
2017-10-22T19:16:39.550Z,18.67
2017-10-22T19:19:06.978Z,19.03
2017-10-22T19:21:35.110Z,17.90
2017-10-22T19:24:02.571Z,19.57
2017-10-22T19:26:29.989Z,17.83
2017-10-22T19:28:57.468Z,18.67
2017-10-22T19:31:24.927Z,16.20
2017-10-22T19:33:52.373Z,15.70
2017-10-22T19:36:19.842Z,22.27
2017-10-22T19:38:47.449Z,15.80
2017-10-22T19:41:14.886Z,21.10
2017-10-22T19:43:42.749Z,13.17
2017-10-22T19:46:10.192Z,17.90
2017-10-22T19:48:37.630Z,17.10
2017-10-22T19:51:05.190Z,14.67
2017-10-22T19:53:32.629Z,17.83
2017-10-22T19:56:00.049Z,13.70
2017-10-22T19:58:27.746Z,17.47
2017-10-22T20:00:55.232Z,15.37
2017-10-22T20:03:22.657Z,14.17
2017-10-22T20:05:50.113Z,14.60
2017-10-22T20:08:18.607Z,14.37
2017-10-22T20:10:46.032Z,13.87
2017-10-22T20:13:13.483Z,14.63
2017-10-22T20:15:40.933Z,15.60
2017-10-22T20:18:08.377Z,18.43
2017-10-22T20:20:35.829Z,13.93
2017-10-22T20:23:03.257Z,14.10
2017-10-22T20:25:31.090Z,14.30
2017-10-22T20:27:58.752Z,16.03
2017-10-22T20:30:26.182Z,16.40
2017-10-22T20:32:53.618Z,12.43
2017-10-22T20:35:21.058Z,11.70
2017-10-22T20:37:49.623Z,14.83
2017-10-22T20:40:17.314Z,17.23
2017-10-22T20:42:45.191Z,17.00
2017-10-22T20:45:12.622Z,20.10
2017-10-22T20:47:40.065Z,13.70
2017-10-22T20:50:08.913Z,15.80
2017-10-22T20:52:36.405Z,14.60
2017-10-22T20:55:04.156Z,14.10
2017-10-22T20:57:31.589Z,14.50
2017-10-22T20:59:59.175Z,14.90
2017-10-22T21:02:26.626Z,15.07
2017-10-22T21:04:54.056Z,17.93
2017-10-22T21:07:21.489Z,15.83
2017-10-22T21:09:48.943Z,16.50
2017-10-22T21:12:16.393Z,15.40
2017-10-22T21:14:43.850Z,15.83
2017-10-22T21:17:11.326Z,18.53
2017-10-22T21:19:38.769Z,15.77
2017-10-22T21:22:06.252Z,11.40
2017-10-22T21:24:33.842Z,16.60
2017-10-22T21:27:01.670Z,16.30
2017-10-22T21:29:29.112Z,13.90
2017-10-22T21:31:56.571Z,14.13
2017-10-22T21:34:24.003Z,18.80
2017-10-22T21:36:51.442Z,22.50
2017-10-22T21:39:19.147Z,16.37
2017-10-22T21:41:46.584Z,17.10
2017-10-22T21:44:14.010Z,20.50
2017-10-22T21:46:41.497Z,23.87
2017-10-22T21:49:08.943Z,15.07
2017-10-22T21:51:36.370Z,19.00
2017-10-22T21:54:04.074Z,17.87
2017-10-22T21:56:31.510Z,17.10
2017-10-22T21:58:58.938Z,20.47
2017-10-22T22:01:26.480Z,16.50
2017-10-22T22:03:54.597Z,18.83
2017-10-22T22:06:22.034Z,17.27
2017-10-22T22:08:49.471Z,21.67
2017-10-22T22:11:17.585Z,17.60
2017-10-22T22:13:45.010Z,18.13
2017-10-22T22:16:12.439Z,19.33
2017-10-22T22:18:40.305Z,17.83
2017-10-22T22:21:08.137Z,14.33
2017-10-22T22:23:35.561Z,16.30
2017-10-22T22:26:03.062Z,20.17
2017-10-22T22:28:30.490Z,18.63
2017-10-22T22:30:57.924Z,21.30
2017-10-22T22:33:25.706Z,22.27
2017-10-22T22:35:53.132Z,17.77
2017-10-22T22:38:20.558Z,14.97
2017-10-22T22:40:48.414Z,14.10
2017-10-22T22:43:15.851Z,15.73
2017-10-22T22:45:43.278Z,15.33
2017-10-22T22:48:10.725Z,13.90
2017-10-22T22:50:38.150Z,15.07
2017-10-22T22:53:05.974Z,14.03
2017-10-22T22:55:34.301Z,14.40
2017-10-22T22:58:01.731Z,17.83
2017-10-22T23:00:29.544Z,16.10
2017-10-22T23:02:56.977Z,15.13
2017-10-22T23:05:24.410Z,14.43
2017-10-22T23:07:51.833Z,18.47
2017-10-22T23:10:19.281Z,15.37
2017-10-22T23:12:46.709Z,17.17
2017-10-22T23:15:14.141Z,15.60
2017-10-22T23:17:41.962Z,16.10
2017-10-22T23:20:09.393Z,16.90
2017-10-22T23:22:37.058Z,14.77
2017-10-22T23:25:04.495Z,22.33
2017-10-22T23:27:31.940Z,16.83
2017-10-22T23:29:59.407Z,14.67
2017-10-22T23:32:26.852Z,15.80
2017-10-22T23:34:54.279Z,22.03
2017-10-22T23:37:22.110Z,18.33
2017-10-22T23:39:49.545Z,19.57
2017-10-22T23:42:16.989Z,20.00
2017-10-22T23:44:44.446Z,21.80
2017-10-22T23:47:11.890Z,19.07
2017-10-22T23:49:39.301Z,20.87
2017-10-22T23:52:06.734Z,20.90
2017-10-22T23:54:34.166Z,21.70
2017-10-22T23:57:01.630Z,15.47
2017-10-22T23:59:29.070Z,18.00
